sensor_id;sensor_type;location;lat;lon;timestamp;temperature;humidity
66096;SHT31;53861;53.422;14.530;2022-12-20T00:01:40;3.63;97.70
66096;SHT31;53861;53.422;14.530;2022-12-20T00:04:08;3.55;97.85
66096;SHT31;53861;53.422;14.530;2022-12-20T00:06:37;3.52;97.80
66096;SHT31;53861;53.422;14.530;2022-12-20T00:09:06;3.56;97.89
66096;SHT31;53861;53.422;14.530;2022-12-20T00:11:35;3.58;97.85
66096;SHT31;53861;53.422;14.530;2022-12-20T00:14:03;3.62;97.69
66096;SHT31;53861;53.422;14.530;2022-12-20T00:16:30;3.58;97.53
66096;SHT31;53861;53.422;14.530;2022-12-20T00:18:59;3.58;97.55
66096;SHT31;53861;53.422;14.530;2022-12-20T00:21:26;3.56;97.38
66096;SHT31;53861;53.422;14.530;2022-12-20T00:23:53;3.62;97.36
66096;SHT31;53861;53.422;14.530;2022-12-20T00:26:21;3.58;97.34
66096;SHT31;53861;53.422;14.530;2022-12-20T00:28:50;3.58;97.55
66096;SHT31;53861;53.422;14.530;2022-12-20T00:31:18;3.59;97.35
66096;SHT31;53861;53.422;14.530;2022-12-20T00:33:46;3.58;97.43
66096;SHT31;53861;53.422;14.530;2022-12-20T00:36:14;3.59;97.45
66096;SHT31;53861;53.422;14.530;2022-12-20T00:38:43;3.61;97.47
66096;SHT31;53861;53.422;14.530;2022-12-20T00:41:10;3.65;97.07
66096;SHT31;53861;53.422;14.530;2022-12-20T00:43:38;3.62;97.07
66096;SHT31;53861;53.422;14.530;2022-12-20T00:46:07;3.59;97.25
66096;SHT31;53861;53.422;14.530;2022-12-20T00:48:34;3.55;97.36
66096;SHT31;53861;53.422;14.530;2022-12-20T00:51:02;3.49;97.62
66096;SHT31;53861;53.422;14.530;2022-12-20T00:53:29;3.55;97.32
66096;SHT31;53861;53.422;14.530;2022-12-20T00:55:57;3.55;97.35
66096;SHT31;53861;53.422;14.530;2022-12-20T00:58:27;3.51;97.43
66096;SHT31;53861;53.422;14.530;2022-12-20T01:00:54;3.51;97.54
66096;SHT31;53861;53.422;14.530;2022-12-20T01:03:22;3.56;97.04
66096;SHT31;53861;53.422;14.530;2022-12-20T01:05:50;3.54;97.24
66096;SHT31;53861;53.422;14.530;2022-12-20T01:08:17;3.56;97.24
66096;SHT31;53861;53.422;14.530;2022-12-20T01:10:44;3.54;97.19
66096;SHT31;53861;53.422;14.530;2022-12-20T01:13:12;3.59;96.87
66096;SHT31;53861;53.422;14.530;2022-12-20T01:15:39;3.49;97.05
66096;SHT31;53861;53.422;14.530;2022-12-20T01:18:07;3.48;97.26
66096;SHT31;53861;53.422;14.530;2022-12-20T01:20:36;3.56;97.16
66096;SHT31;53861;53.422;14.530;2022-12-20T01:23:03;3.54;97.02
66096;SHT31;53861;53.422;14.530;2022-12-20T01:25:30;3.46;97.11
66096;SHT31;53861;53.422;14.530;2022-12-20T01:27:57;3.45;96.96
66096;SHT31;53861;53.422;14.530;2022-12-20T01:30:26;3.52;96.92
66096;SHT31;53861;53.422;14.530;2022-12-20T01:32:53;3.51;96.85
66096;SHT31;53861;53.422;14.530;2022-12-20T01:35:20;3.54;96.59
66096;SHT31;53861;53.422;14.530;2022-12-20T01:37:49;3.58;96.73
66096;SHT31;53861;53.422;14.530;2022-12-20T01:40:16;3.56;96.65
66096;SHT31;53861;53.422;14.530;2022-12-20T01:42:43;3.63;96.42
66096;SHT31;53861;53.422;14.530;2022-12-20T01:45:25;3.59;96.27
66096;SHT31;53861;53.422;14.530;2022-12-20T01:47:56;3.65;96.30
66096;SHT31;53861;53.422;14.530;2022-12-20T01:50:24;3.56;96.21
66096;SHT31;53861;53.422;14.530;2022-12-20T01:52:53;3.55;96.41
66096;SHT31;53861;53.422;14.530;2022-12-20T01:55:21;3.49;96.73
66096;SHT31;53861;53.422;14.530;2022-12-20T01:57:50;3.55;96.61
66096;SHT31;53861;53.422;14.530;2022-12-20T02:00:18;3.55;96.37
66096;SHT31;53861;53.422;14.530;2022-12-20T02:02:46;3.58;96.35
66096;SHT31;53861;53.422;14.530;2022-12-20T02:05:13;3.59;96.18
66096;SHT31;53861;53.422;14.530;2022-12-20T02:07:40;3.63;95.86
66096;SHT31;53861;53.422;14.530;2022-12-20T02:10:10;3.51;96.26
66096;SHT31;53861;53.422;14.530;2022-12-20T02:12:37;3.48;96.35
66096;SHT31;53861;53.422;14.530;2022-12-20T02:15:16;3.56;96.12
66096;SHT31;53861;53.422;14.530;2022-12-20T02:17:48;3.42;96.08
66096;SHT31;53861;53.422;14.530;2022-12-20T02:20:32;3.36;96.42
66096;SHT31;53861;53.422;14.530;2022-12-20T02:25:56;3.34;96.49
66096;SHT31;53861;53.422;14.530;2022-12-20T02:28:31;3.36;96.46
66096;SHT31;53861;53.422;14.530;2022-12-20T02:31:08;3.49;96.33
66096;SHT31;53861;53.422;14.530;2022-12-20T02:33:37;3.38;96.14
66096;SHT31;53861;53.422;14.530;2022-12-20T02:36:05;3.42;96.13
66096;SHT31;53861;53.422;14.530;2022-12-20T02:38:32;3.42;96.01
66096;SHT31;53861;53.422;14.530;2022-12-20T02:41:01;3.43;96.00
66096;SHT31;53861;53.422;14.530;2022-12-20T02:43:29;3.32;96.03
66096;SHT31;53861;53.422;14.530;2022-12-20T02:46:15;3.35;95.79
66096;SHT31;53861;53.422;14.530;2022-12-20T02:48:43;3.32;95.95
66096;SHT31;53861;53.422;14.530;2022-12-20T02:51:13;3.28;96.22
66096;SHT31;53861;53.422;14.530;2022-12-20T02:53:44;3.24;96.29
66096;SHT31;53861;53.422;14.530;2022-12-20T02:56:11;3.24;96.48
66096;SHT31;53861;53.422;14.530;2022-12-20T02:58:41;3.20;96.70
66096;SHT31;53861;53.422;14.530;2022-12-20T03:01:12;3.27;96.65
66096;SHT31;53861;53.422;14.530;2022-12-20T03:03:43;3.24;96.76
66096;SHT31;53861;53.422;14.530;2022-12-20T03:06:10;3.27;96.83
66096;SHT31;53861;53.422;14.530;2022-12-20T03:08:38;3.31;96.81
66096;SHT31;53861;53.422;14.530;2022-12-20T03:11:05;3.42;96.35
66096;SHT31;53861;53.422;14.530;2022-12-20T03:13:32;3.38;96.36
66096;SHT31;53861;53.422;14.530;2022-12-20T03:16:00;3.43;96.03
66096;SHT31;53861;53.422;14.530;2022-12-20T03:18:27;3.39;95.90
66096;SHT31;53861;53.422;14.530;2022-12-20T03:20:55;3.46;95.70
66096;SHT31;53861;53.422;14.530;2022-12-20T03:23:22;3.41;95.86
66096;SHT31;53861;53.422;14.530;2022-12-20T03:25:49;3.38;96.08
66096;SHT31;53861;53.422;14.530;2022-12-20T03:28:16;3.41;95.93
66096;SHT31;53861;53.422;14.530;2022-12-20T03:30:43;3.41;95.93
66096;SHT31;53861;53.422;14.530;2022-12-20T03:33:11;3.46;95.82
66096;SHT31;53861;53.422;14.530;2022-12-20T03:35:38;3.45;95.90
66096;SHT31;53861;53.422;14.530;2022-12-20T03:38:10;3.43;95.96
66096;SHT31;53861;53.422;14.530;2022-12-20T03:40:37;3.46;95.76
66096;SHT31;53861;53.422;14.530;2022-12-20T03:43:04;3.54;95.64
66096;SHT31;53861;53.422;14.530;2022-12-20T03:45:31;3.52;95.59
66096;SHT31;53861;53.422;14.530;2022-12-20T03:47:58;3.56;95.49
66096;SHT31;53861;53.422;14.530;2022-12-20T03:50:25;3.51;95.59
66096;SHT31;53861;53.422;14.530;2022-12-20T03:52:52;3.51;95.41
66096;SHT31;53861;53.422;14.530;2022-12-20T03:55:20;3.51;95.74
66096;SHT31;53861;53.422;14.530;2022-12-20T03:57:47;3.51;95.48
66096;SHT31;53861;53.422;14.530;2022-12-20T04:00:15;3.43;95.87
66096;SHT31;53861;53.422;14.530;2022-12-20T04:02:42;3.46;95.84
66096;SHT31;53861;53.422;14.530;2022-12-20T04:05:09;3.51;95.78
66096;SHT31;53861;53.422;14.530;2022-12-20T04:07:36;3.51;95.53
66096;SHT31;53861;53.422;14.530;2022-12-20T04:10:05;3.55;95.40
66096;SHT31;53861;53.422;14.530;2022-12-20T04:12:34;3.49;95.73
66096;SHT31;53861;53.422;14.530;2022-12-20T04:15:01;3.55;95.47
66096;SHT31;53861;53.422;14.530;2022-12-20T04:17:27;3.49;95.71
66096;SHT31;53861;53.422;14.530;2022-12-20T04:19:54;3.54;95.46
66096;SHT31;53861;53.422;14.530;2022-12-20T04:22:21;3.54;95.81
66096;SHT31;53861;53.422;14.530;2022-12-20T04:24:48;3.63;95.33
66096;SHT31;53861;53.422;14.530;2022-12-20T04:27:21;3.65;95.26
66096;SHT31;53861;53.422;14.530;2022-12-20T04:29:49;3.61;95.34
66096;SHT31;53861;53.422;14.530;2022-12-20T04:32:22;3.62;95.61
66096;SHT31;53861;53.422;14.530;2022-12-20T04:34:49;3.69;95.40
66096;SHT31;53861;53.422;14.530;2022-12-20T04:37:16;3.73;95.14
66096;SHT31;53861;53.422;14.530;2022-12-20T04:39:43;3.76;94.97
66096;SHT31;53861;53.422;14.530;2022-12-20T04:42:10;3.78;94.75
66096;SHT31;53861;53.422;14.530;2022-12-20T04:44:37;3.71;94.98
66096;SHT31;53861;53.422;14.530;2022-12-20T04:47:05;3.82;94.58
66096;SHT31;53861;53.422;14.530;2022-12-20T04:49:32;3.72;95.03
66096;SHT31;53861;53.422;14.530;2022-12-20T04:51:59;3.62;95.46
66096;SHT31;53861;53.422;14.530;2022-12-20T04:54:42;3.58;95.13
66096;SHT31;53861;53.422;14.530;2022-12-20T04:57:11;3.56;95.54
66096;SHT31;53861;53.422;14.530;2022-12-20T04:59:37;3.66;95.22
66096;SHT31;53861;53.422;14.530;2022-12-20T05:02:06;3.72;95.02
66096;SHT31;53861;53.422;14.530;2022-12-20T05:04:33;3.82;94.66
66096;SHT31;53861;53.422;14.530;2022-12-20T05:07:00;3.79;95.03
66096;SHT31;53861;53.422;14.530;2022-12-20T05:09:27;3.78;94.97
66096;SHT31;53861;53.422;14.530;2022-12-20T05:11:53;3.82;94.77
66096;SHT31;53861;53.422;14.530;2022-12-20T05:14:20;3.80;94.70
66096;SHT31;53861;53.422;14.530;2022-12-20T05:16:47;3.78;95.13
66096;SHT31;53861;53.422;14.530;2022-12-20T05:19:16;3.82;94.57
66096;SHT31;53861;53.422;14.530;2022-12-20T05:21:43;3.76;95.01
66096;SHT31;53861;53.422;14.530;2022-12-20T05:24:27;3.80;95.02
66096;SHT31;53861;53.422;14.530;2022-12-20T05:27:10;3.80;95.00
66096;SHT31;53861;53.422;14.530;2022-12-20T05:29:37;3.82;94.90
66096;SHT31;53861;53.422;14.530;2022-12-20T05:32:04;3.89;94.38
66096;SHT31;53861;53.422;14.530;2022-12-20T05:34:32;3.80;95.08
66096;SHT31;53861;53.422;14.530;2022-12-20T05:36:59;3.79;94.90
66096;SHT31;53861;53.422;14.530;2022-12-20T05:39:29;3.82;94.99
66096;SHT31;53861;53.422;14.530;2022-12-20T05:41:56;3.76;95.26
66096;SHT31;53861;53.422;14.530;2022-12-20T05:44:24;3.89;94.93
66096;SHT31;53861;53.422;14.530;2022-12-20T05:46:50;3.96;94.48
66096;SHT31;53861;53.422;14.530;2022-12-20T05:49:17;4.02;94.60
66096;SHT31;53861;53.422;14.530;2022-12-20T05:51:48;3.93;94.55
66096;SHT31;53861;53.422;14.530;2022-12-20T05:54:16;3.99;94.60
66096;SHT31;53861;53.422;14.530;2022-12-20T05:56:43;4.02;94.31
66096;SHT31;53861;53.422;14.530;2022-12-20T05:59:10;4.00;94.71
66096;SHT31;53861;53.422;14.530;2022-12-20T06:01:37;3.96;94.50
66096;SHT31;53861;53.422;14.530;2022-12-20T06:04:03;3.92;94.50
66096;SHT31;53861;53.422;14.530;2022-12-20T06:06:30;3.97;94.55
66096;SHT31;53861;53.422;14.530;2022-12-20T06:08:59;3.89;94.88
66096;SHT31;53861;53.422;14.530;2022-12-20T06:11:26;3.97;94.41
66096;SHT31;53861;53.422;14.530;2022-12-20T06:13:56;3.87;94.40
66096;SHT31;53861;53.422;14.530;2022-12-20T06:16:23;3.85;94.59
66096;SHT31;53861;53.422;14.530;2022-12-20T06:19:01;3.96;94.66
66096;SHT31;53861;53.422;14.530;2022-12-20T06:21:28;3.93;94.63
66096;SHT31;53861;53.422;14.530;2022-12-20T06:23:56;3.92;95.06
66096;SHT31;53861;53.422;14.530;2022-12-20T06:26:24;4.02;94.50
66096;SHT31;53861;53.422;14.530;2022-12-20T06:28:52;4.04;94.51
66096;SHT31;53861;53.422;14.530;2022-12-20T06:31:21;4.11;93.76
66096;SHT31;53861;53.422;14.530;2022-12-20T06:33:48;4.13;93.60
66096;SHT31;53861;53.422;14.530;2022-12-20T06:36:15;4.14;93.82
66096;SHT31;53861;53.422;14.530;2022-12-20T06:38:42;4.17;93.74
66096;SHT31;53861;53.422;14.530;2022-12-20T06:41:09;4.16;93.74
66096;SHT31;53861;53.422;14.530;2022-12-20T06:43:37;4.17;93.66
66096;SHT31;53861;53.422;14.530;2022-12-20T06:46:04;4.18;93.74
66096;SHT31;53861;53.422;14.530;2022-12-20T06:48:31;4.20;93.01
66096;SHT31;53861;53.422;14.530;2022-12-20T06:50:58;4.24;93.22
66096;SHT31;53861;53.422;14.530;2022-12-20T06:53:25;4.17;93.27
66096;SHT31;53861;53.422;14.530;2022-12-20T06:55:52;4.16;93.51
66096;SHT31;53861;53.422;14.530;2022-12-20T06:58:19;4.16;93.37
66096;SHT31;53861;53.422;14.530;2022-12-20T07:00:48;4.18;93.65
66096;SHT31;53861;53.422;14.530;2022-12-20T07:03:14;4.21;93.67
66096;SHT31;53861;53.422;14.530;2022-12-20T07:05:41;4.16;93.79
66096;SHT31;53861;53.422;14.530;2022-12-20T07:08:08;4.13;93.69
66096;SHT31;53861;53.422;14.530;2022-12-20T07:10:35;4.16;93.61
66096;SHT31;53861;53.422;14.530;2022-12-20T07:13:02;4.18;93.36
66096;SHT31;53861;53.422;14.530;2022-12-20T07:15:29;4.25;92.89
66096;SHT31;53861;53.422;14.530;2022-12-20T07:17:58;4.18;93.46
66096;SHT31;53861;53.422;14.530;2022-12-20T07:20:24;4.18;93.42
66096;SHT31;53861;53.422;14.530;2022-12-20T07:22:51;4.14;94.04
66096;SHT31;53861;53.422;14.530;2022-12-20T07:25:18;4.29;92.95
66096;SHT31;53861;53.422;14.530;2022-12-20T07:27:45;4.29;92.74
66096;SHT31;53861;53.422;14.530;2022-12-20T07:30:13;4.18;92.97
66096;SHT31;53861;53.422;14.530;2022-12-20T07:32:43;4.24;92.92
66096;SHT31;53861;53.422;14.530;2022-12-20T07:35:11;4.30;92.81
66096;SHT31;53861;53.422;14.530;2022-12-20T07:37:39;4.24;93.55
66096;SHT31;53861;53.422;14.530;2022-12-20T07:40:12;4.23;93.29
66096;SHT31;53861;53.422;14.530;2022-12-20T07:42:40;4.32;92.89
66096;SHT31;53861;53.422;14.530;2022-12-20T07:45:07;4.30;92.66
66096;SHT31;53861;53.422;14.530;2022-12-20T07:47:35;4.29;93.00
66096;SHT31;53861;53.422;14.530;2022-12-20T07:50:02;4.30;92.78
66096;SHT31;53861;53.422;14.530;2022-12-20T07:52:30;4.30;92.98
66096;SHT31;53861;53.422;14.530;2022-12-20T07:54:59;4.21;93.10
66096;SHT31;53861;53.422;14.530;2022-12-20T07:57:28;4.32;92.65
66096;SHT31;53861;53.422;14.530;2022-12-20T07:59:56;4.34;92.31
66096;SHT31;53861;53.422;14.530;2022-12-20T08:02:26;4.38;92.20
66096;SHT31;53861;53.422;14.530;2022-12-20T08:04:55;4.44;92.12
66096;SHT31;53861;53.422;14.530;2022-12-20T08:07:22;4.34;92.31
66096;SHT31;53861;53.422;14.530;2022-12-20T08:09:51;4.27;92.41
66096;SHT31;53861;53.422;14.530;2022-12-20T08:12:18;4.38;92.43
66096;SHT31;53861;53.422;14.530;2022-12-20T08:14:46;4.44;91.89
66096;SHT31;53861;53.422;14.530;2022-12-20T08:17:13;4.40;92.44
66096;SHT31;53861;53.422;14.530;2022-12-20T08:19:44;4.47;91.79
66096;SHT31;53861;53.422;14.530;2022-12-20T08:22:12;4.48;91.68
66096;SHT31;53861;53.422;14.530;2022-12-20T08:24:38;4.44;92.52
66096;SHT31;53861;53.422;14.530;2022-12-20T08:27:07;4.57;91.68
66096;SHT31;53861;53.422;14.530;2022-12-20T08:29:34;4.61;91.85
66096;SHT31;53861;53.422;14.530;2022-12-20T08:32:01;4.64;91.50
66096;SHT31;53861;53.422;14.530;2022-12-20T08:34:27;4.71;91.14
66096;SHT31;53861;53.422;14.530;2022-12-20T08:36:54;4.68;92.05
66096;SHT31;53861;53.422;14.530;2022-12-20T08:39:21;4.69;91.89
66096;SHT31;53861;53.422;14.530;2022-12-20T08:41:48;4.71;92.13
66096;SHT31;53861;53.422;14.530;2022-12-20T08:44:16;4.82;91.17
66096;SHT31;53861;53.422;14.530;2022-12-20T08:46:43;4.93;90.87
66096;SHT31;53861;53.422;14.530;2022-12-20T08:49:10;4.95;91.07
66096;SHT31;53861;53.422;14.530;2022-12-20T08:51:38;4.92;91.26
66096;SHT31;53861;53.422;14.530;2022-12-20T08:54:08;4.96;91.13
66096;SHT31;53861;53.422;14.530;2022-12-20T08:56:35;4.91;90.95
66096;SHT31;53861;53.422;14.530;2022-12-20T08:59:02;5.02;90.80
66096;SHT31;53861;53.422;14.530;2022-12-20T09:01:30;4.99;91.29
66096;SHT31;53861;53.422;14.530;2022-12-20T09:03:58;4.93;91.52
66096;SHT31;53861;53.422;14.530;2022-12-20T09:06:25;4.95;91.83
66096;SHT31;53861;53.422;14.530;2022-12-20T09:08:52;5.05;91.14
66096;SHT31;53861;53.422;14.530;2022-12-20T09:11:20;5.02;91.32
66096;SHT31;53861;53.422;14.530;2022-12-20T09:13:48;5.00;91.75
66096;SHT31;53861;53.422;14.530;2022-12-20T09:16:16;4.98;92.01
66096;SHT31;53861;53.422;14.530;2022-12-20T09:18:46;4.95;92.13
66096;SHT31;53861;53.422;14.530;2022-12-20T09:21:13;4.92;92.55
66096;SHT31;53861;53.422;14.530;2022-12-20T09:23:40;4.91;92.85
66096;SHT31;53861;53.422;14.530;2022-12-20T09:26:09;4.93;92.77
66096;SHT31;53861;53.422;14.530;2022-12-20T09:28:37;4.91;93.30
66096;SHT31;53861;53.422;14.530;2022-12-20T09:31:05;4.93;93.39
66096;SHT31;53861;53.422;14.530;2022-12-20T09:33:33;5.04;93.33
66096;SHT31;53861;53.422;14.530;2022-12-20T09:36:02;5.04;93.53
66096;SHT31;53861;53.422;14.530;2022-12-20T09:38:29;5.04;93.58
66096;SHT31;53861;53.422;14.530;2022-12-20T09:40:58;5.13;93.91
66096;SHT31;53861;53.422;14.530;2022-12-20T09:43:25;5.16;93.66
66096;SHT31;53861;53.422;14.530;2022-12-20T09:45:53;5.19;93.56
66096;SHT31;53861;53.422;14.530;2022-12-20T09:48:21;5.18;93.74
66096;SHT31;53861;53.422;14.530;2022-12-20T09:50:51;5.18;93.75
66096;SHT31;53861;53.422;14.530;2022-12-20T09:53:25;5.09;94.22
66096;SHT31;53861;53.422;14.530;2022-12-20T09:55:55;5.08;94.52
66096;SHT31;53861;53.422;14.530;2022-12-20T09:58:27;5.19;94.23
66096;SHT31;53861;53.422;14.530;2022-12-20T10:01:04;5.15;94.34
66096;SHT31;53861;53.422;14.530;2022-12-20T10:03:37;5.09;94.71
66096;SHT31;53861;53.422;14.530;2022-12-20T10:06:05;5.13;94.85
66096;SHT31;53861;53.422;14.530;2022-12-20T10:08:43;5.11;95.20
66096;SHT31;53861;53.422;14.530;2022-12-20T10:11:13;5.15;94.95
66096;SHT31;53861;53.422;14.530;2022-12-20T10:13:47;5.12;95.40
66096;SHT31;53861;53.422;14.530;2022-12-20T10:19:05;5.37;94.94
66096;SHT31;53861;53.422;14.530;2022-12-20T10:21:39;5.35;95.10
66096;SHT31;53861;53.422;14.530;2022-12-20T10:24:13;5.33;95.32
66096;SHT31;53861;53.422;14.530;2022-12-20T10:26:42;5.37;95.38
66096;SHT31;53861;53.422;14.530;2022-12-20T10:29:09;5.36;95.59
66096;SHT31;53861;53.422;14.530;2022-12-20T10:31:37;5.42;95.14
66096;SHT31;53861;53.422;14.530;2022-12-20T10:37:09;5.40;95.68
66096;SHT31;53861;53.422;14.530;2022-12-20T10:39:41;5.47;95.53
66096;SHT31;53861;53.422;14.530;2022-12-20T10:42:26;5.47;95.61
66096;SHT31;53861;53.422;14.530;2022-12-20T10:44:57;5.51;95.65
66096;SHT31;53861;53.422;14.530;2022-12-20T10:47:34;5.57;95.76
66096;SHT31;53861;53.422;14.530;2022-12-20T10:50:09;5.59;95.64
66096;SHT31;53861;53.422;14.530;2022-12-20T10:52:38;5.56;95.81
66096;SHT31;53861;53.422;14.530;2022-12-20T10:55:32;5.60;96.14
66096;SHT31;53861;53.422;14.530;2022-12-20T10:58:01;5.61;96.02
66096;SHT31;53861;53.422;14.530;2022-12-20T11:00:32;5.60;95.94
66096;SHT31;53861;53.422;14.530;2022-12-20T11:03:09;5.60;95.97
66096;SHT31;53861;53.422;14.530;2022-12-20T11:05:37;5.66;95.91
66096;SHT31;53861;53.422;14.530;2022-12-20T11:08:11;5.70;95.94
66096;SHT31;53861;53.422;14.530;2022-12-20T11:10:40;5.74;95.89
66096;SHT31;53861;53.422;14.530;2022-12-20T11:13:09;5.78;95.90
66096;SHT31;53861;53.422;14.530;2022-12-20T11:15:46;5.86;96.10
66096;SHT31;53861;53.422;14.530;2022-12-20T11:18:14;5.83;96.13
66096;SHT31;53861;53.422;14.530;2022-12-20T11:20:43;6.01;96.08
66096;SHT31;53861;53.422;14.530;2022-12-20T11:23:15;6.12;95.54
66096;SHT31;53861;53.422;14.530;2022-12-20T11:25:57;6.24;95.31
66096;SHT31;53861;53.422;14.530;2022-12-20T11:28:31;6.17;95.42
66096;SHT31;53861;53.422;14.530;2022-12-20T11:31:05;6.08;95.64
66096;SHT31;53861;53.422;14.530;2022-12-20T11:33:47;6.18;95.51
66096;SHT31;53861;53.422;14.530;2022-12-20T11:36:21;6.14;95.96
66096;SHT31;53861;53.422;14.530;2022-12-20T11:38:54;6.18;95.74
66096;SHT31;53861;53.422;14.530;2022-12-20T11:41:27;6.26;95.62
66096;SHT31;53861;53.422;14.530;2022-12-20T11:44:05;6.22;95.52
66096;SHT31;53861;53.422;14.530;2022-12-20T11:46:38;6.26;95.62
66096;SHT31;53861;53.422;14.530;2022-12-20T11:49:22;6.25;95.89
66096;SHT31;53861;53.422;14.530;2022-12-20T11:51:51;6.24;96.06
66096;SHT31;53861;53.422;14.530;2022-12-20T11:54:25;6.25;95.97
66096;SHT31;53861;53.422;14.530;2022-12-20T11:56:57;6.25;95.96
66096;SHT31;53861;53.422;14.530;2022-12-20T11:59:28;6.39;95.73
66096;SHT31;53861;53.422;14.530;2022-12-20T12:01:59;6.46;95.53
66096;SHT31;53861;53.422;14.530;2022-12-20T12:04:29;6.52;95.34
66096;SHT31;53861;53.422;14.530;2022-12-20T12:06:57;6.48;95.22
66096;SHT31;53861;53.422;14.530;2022-12-20T12:09:27;6.57;94.98
66096;SHT31;53861;53.422;14.530;2022-12-20T12:11:57;6.59;95.08
66096;SHT31;53861;53.422;14.530;2022-12-20T12:14:30;6.59;95.09
66096;SHT31;53861;53.422;14.530;2022-12-20T12:17:03;6.69;95.05
66096;SHT31;53861;53.422;14.530;2022-12-20T12:19:33;6.75;95.08
66096;SHT31;53861;53.422;14.530;2022-12-20T12:22:04;6.80;95.00
66096;SHT31;53861;53.422;14.530;2022-12-20T12:24:34;6.82;94.75
66096;SHT31;53861;53.422;14.530;2022-12-20T12:27:06;6.86;94.95
66096;SHT31;53861;53.422;14.530;2022-12-20T12:29:38;6.75;95.00
66096;SHT31;53861;53.422;14.530;2022-12-20T12:32:05;6.82;94.99
66096;SHT31;53861;53.422;14.530;2022-12-20T12:34:39;6.71;94.83
66096;SHT31;53861;53.422;14.530;2022-12-20T12:40:03;6.69;95.33
66096;SHT31;53861;53.422;14.530;2022-12-20T12:42:47;6.61;95.28
66096;SHT31;53861;53.422;14.530;2022-12-20T12:45:22;6.66;95.14
66096;SHT31;53861;53.422;14.530;2022-12-20T12:47:51;6.57;95.66
66096;SHT31;53861;53.422;14.530;2022-12-20T12:50:21;6.69;95.33
66096;SHT31;53861;53.422;14.530;2022-12-20T12:52:49;6.68;95.35
66096;SHT31;53861;53.422;14.530;2022-12-20T12:55:37;6.63;95.72
66096;SHT31;53861;53.422;14.530;2022-12-20T13:00:57;6.71;95.16
66096;SHT31;53861;53.422;14.530;2022-12-20T13:03:35;6.77;95.19
66096;SHT31;53861;53.422;14.530;2022-12-20T13:09:15;6.53;96.04
66096;SHT31;53861;53.422;14.530;2022-12-20T13:11:43;6.56;95.84
66096;SHT31;53861;53.422;14.530;2022-12-20T13:14:10;6.66;95.63
66096;SHT31;53861;53.422;14.530;2022-12-20T13:16:39;6.65;95.67
66096;SHT31;53861;53.422;14.530;2022-12-20T13:19:10;6.66;95.60
66096;SHT31;53861;53.422;14.530;2022-12-20T13:21:39;6.56;95.87
66096;SHT31;53861;53.422;14.530;2022-12-20T13:27:15;6.66;95.80
66096;SHT31;53861;53.422;14.530;2022-12-20T13:35:28;6.66;95.57
66096;SHT31;53861;53.422;14.530;2022-12-20T13:37:56;6.79;95.23
66096;SHT31;53861;53.422;14.530;2022-12-20T13:40:30;6.77;95.28
66096;SHT31;53861;53.422;14.530;2022-12-20T13:42:58;6.63;95.84
66096;SHT31;53861;53.422;14.530;2022-12-20T13:45:30;6.66;95.66
66096;SHT31;53861;53.422;14.530;2022-12-20T13:47:59;6.68;95.51
66096;SHT31;53861;53.422;14.530;2022-12-20T13:50:32;6.63;95.59
66096;SHT31;53861;53.422;14.530;2022-12-20T13:53:01;6.56;95.83
66096;SHT31;53861;53.422;14.530;2022-12-20T13:55:34;6.59;95.67
66096;SHT31;53861;53.422;14.530;2022-12-20T13:58:05;6.62;95.46
66096;SHT31;53861;53.422;14.530;2022-12-20T14:00:33;6.57;95.57
66096;SHT31;53861;53.422;14.530;2022-12-20T14:03:00;6.50;95.81
66096;SHT31;53861;53.422;14.530;2022-12-20T14:05:32;6.57;95.67
66096;SHT31;53861;53.422;14.530;2022-12-20T14:08:00;6.50;96.00
66096;SHT31;53861;53.422;14.530;2022-12-20T14:10:29;6.53;95.95
66096;SHT31;53861;53.422;14.530;2022-12-20T14:12:56;6.52;95.63
66096;SHT31;53861;53.422;14.530;2022-12-20T14:15:25;6.62;95.53
66096;SHT31;53861;53.422;14.530;2022-12-20T14:17:52;6.53;95.56
66096;SHT31;53861;53.422;14.530;2022-12-20T14:20:21;6.48;95.63
66096;SHT31;53861;53.422;14.530;2022-12-20T14:22:52;6.50;95.52
66096;SHT31;53861;53.422;14.530;2022-12-20T14:25:22;6.43;95.65
66096;SHT31;53861;53.422;14.530;2022-12-20T14:27:52;6.42;95.50
66096;SHT31;53861;53.422;14.530;2022-12-20T14:30:29;6.52;95.36
66096;SHT31;53861;53.422;14.530;2022-12-20T14:32:57;6.48;95.06
66096;SHT31;53861;53.422;14.530;2022-12-20T14:35:24;6.50;95.02
66096;SHT31;53861;53.422;14.530;2022-12-20T14:37:53;6.46;94.93
66096;SHT31;53861;53.422;14.530;2022-12-20T14:40:21;6.39;95.30
66096;SHT31;53861;53.422;14.530;2022-12-20T14:42:48;6.39;95.18
66096;SHT31;53861;53.422;14.530;2022-12-20T14:45:17;6.41;95.19
66096;SHT31;53861;53.422;14.530;2022-12-20T14:47:47;6.43;95.07
66096;SHT31;53861;53.422;14.530;2022-12-20T14:50:16;6.36;95.17
66096;SHT31;53861;53.422;14.530;2022-12-20T14:52:43;6.29;95.06
66096;SHT31;53861;53.422;14.530;2022-12-20T14:55:13;6.32;95.05
66096;SHT31;53861;53.422;14.530;2022-12-20T14:57:43;6.35;94.97
66096;SHT31;53861;53.422;14.530;2022-12-20T15:00:14;6.29;95.08
66096;SHT31;53861;53.422;14.530;2022-12-20T15:02:48;6.28;94.93
66096;SHT31;53861;53.422;14.530;2022-12-20T15:05:34;6.24;95.07
66096;SHT31;53861;53.422;14.530;2022-12-20T15:08:09;6.31;94.70
66096;SHT31;53861;53.422;14.530;2022-12-20T15:10:38;6.24;94.84
66096;SHT31;53861;53.422;14.530;2022-12-20T15:13:08;6.20;95.10
66096;SHT31;53861;53.422;14.530;2022-12-20T15:15:37;6.21;95.07
66096;SHT31;53861;53.422;14.530;2022-12-20T15:18:06;6.29;94.50
66096;SHT31;53861;53.422;14.530;2022-12-20T15:20:34;6.35;94.31
66096;SHT31;53861;53.422;14.530;2022-12-20T15:23:01;6.35;94.13
66096;SHT31;53861;53.422;14.530;2022-12-20T15:25:28;6.31;94.02
66096;SHT31;53861;53.422;14.530;2022-12-20T15:27:57;6.22;94.57
66096;SHT31;53861;53.422;14.530;2022-12-20T15:30:24;6.18;94.65
66096;SHT31;53861;53.422;14.530;2022-12-20T15:32:51;6.20;94.49
66096;SHT31;53861;53.422;14.530;2022-12-20T15:35:18;6.20;94.42
66096;SHT31;53861;53.422;14.530;2022-12-20T15:37:45;6.21;94.35
66096;SHT31;53861;53.422;14.530;2022-12-20T15:40:12;6.08;94.74
66096;SHT31;53861;53.422;14.530;2022-12-20T15:42:40;6.12;94.53
66096;SHT31;53861;53.422;14.530;2022-12-20T15:45:12;6.17;94.18
66096;SHT31;53861;53.422;14.530;2022-12-20T15:47:39;6.18;94.05
66096;SHT31;53861;53.422;14.530;2022-12-20T15:50:08;6.05;94.39
66096;SHT31;53861;53.422;14.530;2022-12-20T15:52:36;5.98;94.55
66096;SHT31;53861;53.422;14.530;2022-12-20T15:55:03;5.97;94.68
66096;SHT31;53861;53.422;14.530;2022-12-20T15:57:31;6.00;94.43
66096;SHT31;53861;53.422;14.530;2022-12-20T15:59:59;6.00;94.24
66096;SHT31;53861;53.422;14.530;2022-12-20T16:02:28;5.95;94.62
66096;SHT31;53861;53.422;14.530;2022-12-20T16:04:55;5.97;94.29
66096;SHT31;53861;53.422;14.530;2022-12-20T16:07:22;6.01;93.97
66096;SHT31;53861;53.422;14.530;2022-12-20T16:09:50;6.07;94.04